Terminal Aerodrome Forecast
Issued by NWS Austin/San Antonio, TX

Home | Current Version | Previous Version | Text Only | Print | Product List | Glossary On
Versions: 1 2 3 4 5 6 7 8 9 10 11 12 13 14 15 16 17 18 19 20 21 22 23 24 25
000
FTUS44 KEWX 230500
TAFDRT
TAF
KDRT 230524Z 2306/2406 12010KT P6SM SKC
     FM231200 11007KT P6SM BKN012
     FM231700 14015KT P6SM SCT030 SCT120
     FM232100 15017KT P6SM BKN050 BKN120 PROB30 2322/2402 VRB25G35KT
      3SM TSRA BKN040CB=

USA.gov is the U.S. government's official web portal to all federal, state and local government web resources and services.